Time;durP1;ratioP1;P1;durP2;ratioP2;P2;SDS_P1;SDS_P2;PMS_P1;PMS_P2;Temp;Humidity;BMP_temperature;BMP_pressure;BME280_temperature;BME280_humidity;BME280_pressure;Samples;Min_cycle;Max_cycle;Signal;HPM_P1;HPM_P2
2022/05/30 00:01:44;;;;;;;;;;;;;;;26.56;35.81;93462.19;4981246;28;7159;-59
2022/05/30 00:04:10;;;;;;;;;;;;;;;26.54;35.62;93459.22;4990549;28;7254;-59
2022/05/30 00:06:37;;;;;;;;;;;;;;;26.56;35.64;93466.97;4990839;28;9613;-59
2022/05/30 00:09:04;;;;;;;;;;;;;;;26.55;35.16;93465.50;4990817;28;7270;-59
2022/05/30 00:11:42;;;;;;;;;;;;;;;26.55;35.67;93459.97;4989795;28;7433;-59
2022/05/30 00:14:08;;;;;;;;;;;;;;;26.53;35.15;93457.03;5002060;28;7248;-59
2022/05/30 00:16:36;;;;;;;;;;;;;;;26.53;35.25;93455.00;4981418;28;6977;-59
2022/05/30 00:19:02;;;;;;;;;;;;;;;26.53;35.82;93460.53;5008664;28;9217;-59
2022/05/30 00:21:32;;;;;;;;;;;;;;;26.53;36.05;93446.75;5004399;28;7371;-59
2022/05/30 00:23:58;;;;;;;;;;;;;;;26.52;35.25;93444.50;5006476;28;7122;-59
2022/05/30 00:26:25;;;;;;;;;;;;;;;26.51;35.21;93449.28;4989414;28;9055;-59
2022/05/30 00:28:52;;;;;;;;;;;;;;;26.50;35.04;93444.31;4981881;28;9169;-59
2022/05/30 00:31:19;;;;;;;;;;;;;;;26.49;35.02;93440.09;4991159;28;9082;-59
2022/05/30 00:33:49;;;;;;;;;;;;;;;26.49;35.68;93445.59;4987221;28;9114;-60
2022/05/30 00:36:15;;;;;;;;;;;;;;;26.50;35.96;93449.81;4990356;28;8783;-59
2022/05/30 00:38:44;;;;;;;;;;;;;;;26.48;35.39;93444.09;5010711;28;9022;-59
2022/05/30 00:41:10;;;;;;;;;;;;;;;26.47;35.69;93439.88;4989892;28;7046;-59
2022/05/30 00:43:41;;;;;;;;;;;;;;;26.45;35.90;93423.84;5009692;28;9084;-60
2022/05/30 00:46:12;;;;;;;;;;;;;;;26.47;35.58;93437.13;4991125;28;7300;-59
2022/05/30 00:48:53;;;;;;;;;;;;;;;26.44;35.49;93436.19;4959046;28;7033;-59
2022/05/30 00:51:43;;;;;;;;;;;;;;;26.44;35.04;93433.44;4991480;28;9080;-59
2022/05/30 00:54:17;;;;;;;;;;;;;;;26.44;35.75;93430.66;4992052;28;7009;-59
2022/05/30 00:56:49;;;;;;;;;;;;;;;26.44;35.55;93433.44;4998803;28;7459;-59
2022/05/30 00:59:17;;;;;;;;;;;;;;;26.41;35.69;93423.47;5013893;28;9036;-59
2022/05/30 01:01:43;;;;;;;;;;;;;;;26.42;35.56;93426.97;4993098;28;7059;-59
2022/05/30 01:07:15;;;;;;;;;;;;;;;26.39;35.71;93414.25;4976574;28;9205;-59
2022/05/30 01:09:54;;;;;;;;;;;;;;;26.38;35.35;93418.31;4987287;28;9387;-59
2022/05/30 01:12:52;;;;;;;;;;;;;;;26.40;35.66;93415.75;4983409;28;7230;-59
2022/05/30 01:15:29;;;;;;;;;;;;;;;26.40;35.19;93421.25;5009536;28;7254;-59
2022/05/30 01:18:10;;;;;;;;;;;;;;;26.39;35.32;93411.50;5002204;28;9255;-59
2022/05/30 01:21:07;;;;;;;;;;;;;;;26.39;35.08;93415.00;4991000;28;7646;-59
2022/05/30 01:24:00;;;;;;;;;;;;;;;26.38;36.06;93419.03;5002043;28;9229;-60
2022/05/30 01:26:54;;;;;;;;;;;;;;;26.37;35.92;93406.53;4993448;28;8858;-60
2022/05/30 01:29:35;;;;;;;;;;;;;;;26.35;35.03;93400.06;5008430;28;9078;-59
2022/05/30 01:32:17;;;;;;;;;;;;;;;26.35;35.52;93402.81;5000294;28;9508;-59
2022/05/30 01:34:43;;;;;;;;;;;;;;;26.32;35.22;93399.13;5001025;28;7045;-60
2022/05/30 01:37:09;;;;;;;;;;;;;;;26.33;35.53;93406.13;5002138;28;8137;-59
2022/05/30 01:39:37;;;;;;;;;;;;;;;26.33;35.42;93399.88;4975874;28;7457;-59
2022/05/30 01:42:03;;;;;;;;;;;;;;;26.33;35.82;93397.13;4992816;28;8151;-59
2022/05/30 01:44:37;;;;;;;;;;;;;;;26.30;35.91;93400.94;5025493;28;7452;-59
2022/05/30 01:47:20;;;;;;;;;;;;;;;26.31;35.68;93402.44;5004268;28;9115;-59
2022/05/30 01:50:21;;;;;;;;;;;;;;;26.30;35.99;93395.44;4993462;28;7556;-59
2022/05/30 01:53:05;;;;;;;;;;;;;;;26.28;35.91;93397.97;5010711;28;9049;-59
2022/05/30 01:55:41;;;;;;;;;;;;;;;26.29;36.02;93396.72;4986017;28;7233;-59
2022/05/30 01:58:13;;;;;;;;;;;;;;;26.29;34.91;93394.72;5008041;28;7487;-59
2022/05/30 02:00:55;;;;;;;;;;;;;;;26.29;35.60;93393.97;4995066;28;9033;-60
2022/05/30 02:03:23;;;;;;;;;;;;;;;26.28;35.41;93392.47;4996267;28;9054;-59
2022/05/30 02:05:49;;;;;;;;;;;;;;;26.26;35.07;93390.25;5012354;28;7392;-60
2022/05/30 02:08:26;;;;;;;;;;;;;;;26.27;35.58;93393.75;4987141;28;7040;-59
2022/05/30 02:11:08;;;;;;;;;;;;;;;26.25;35.26;93382.53;5013602;28;7742;-59
2022/05/30 02:13:37;;;;;;;;;;;;;;;26.26;35.32;93386.75;4989179;28;6903;-59
2022/05/30 02:19:09;;;;;;;;;;;;;;;26.24;35.84;93373.53;4987064;28;7195;-59
2022/05/30 02:21:37;;;;;;;;;;;;;;;26.23;35.56;93379.59;4991239;28;7266;-59
2022/05/30 02:24:16;;;;;;;;;;;;;;;26.23;35.72;93376.81;5009038;28;7352;-60
2022/05/30 02:26:48;;;;;;;;;;;;;;;26.20;35.94;93369.63;4976379;28;6995;-59
2022/05/30 02:29:36;;;;;;;;;;;;;;;26.22;35.19;93378.09;4981294;28;7084;-59
2022/05/30 02:32:08;;;;;;;;;;;;;;;26.21;35.93;93377.34;4993046;28;8465;-59
2022/05/30 02:37:19;;;;;;;;;;;;;;;26.21;35.93;93382.16;4982572;28;9492;-59
2022/05/30 02:39:45;;;;;;;;;;;;;;;26.19;35.02;93379.19;5020138;28;6936;-59
2022/05/30 02:42:13;;;;;;;;;;;;;;;26.19;35.00;93376.44;4981393;28;8806;-59
2022/05/30 02:45:04;;;;;;;;;;;;;;;26.19;36.04;93374.38;5006727;28;9101;-59
2022/05/30 02:47:32;;;;;;;;;;;;;;;26.16;35.45;93378.25;4991589;28;7279;-59
2022/05/30 02:50:00;;;;;;;;;;;;;;;26.15;34.99;93374.75;4976782;28;6984;-59
2022/05/30 02:52:28;;;;;;;;;;;;;;;26.16;35.93;93376.22;5010977;28;7061;-59
2022/05/30 02:54:57;;;;;;;;;;;;;;;26.15;35.64;93376.75;5016654;28;7116;-59
2022/05/30 02:57:23;;;;;;;;;;;;;;;26.14;35.39;93383.56;4990770;28;9142;-59
2022/05/30 02:59:53;;;;;;;;;;;;;;;26.15;35.68;93385.03;4993491;28;9263;-59
2022/05/30 03:02:20;;;;;;;;;;;;;;;26.13;35.95;93382.81;4992009;28;9008;-59
2022/05/30 03:04:49;;;;;;;;;;;;;;;26.13;35.94;93384.81;4995974;28;9000;-59
2022/05/30 03:07:16;;;;;;;;;;;;;;;26.12;35.04;93389.59;5011362;28;7066;-59
2022/05/30 03:09:44;;;;;;;;;;;;;;;26.12;35.55;93388.88;4991808;28;8792;-59
2022/05/30 03:12:20;;;;;;;;;;;;;;;26.10;35.52;93391.41;4989199;28;7278;-59
2022/05/30 03:15:19;;;;;;;;;;;;;;;26.10;35.02;93383.88;5020460;28;7495;-60
2022/05/30 03:17:45;;;;;;;;;;;;;;;26.09;35.32;93381.66;4988713;28;7982;-59
2022/05/30 03:20:13;;;;;;;;;;;;;;;26.08;35.03;93385.66;4988227;28;7255;-59
2022/05/30 03:22:39;;;;;;;;;;;;;;;26.10;35.24;93383.13;4987372;28;7062;-59
2022/05/30 03:25:05;;;;;;;;;;;;;;;26.09;35.90;93387.94;4986058;28;7253;-59
2022/05/30 03:27:34;;;;;;;;;;;;;;;26.08;34.95;93388.41;4984460;28;7264;-59
2022/05/30 03:30:01;;;;;;;;;;;;;;;26.08;35.88;93388.41;4969718;28;7256;-59
2022/05/30 03:32:50;;;;;;;;;;;;;;;26.07;35.24;93390.44;4990200;28;9125;-59
2022/05/30 03:35:31;;;;;;;;;;;;;;;26.07;35.82;93389.72;4988965;28;10165;-59
2022/05/30 03:37:58;;;;;;;;;;;;;;;26.06;35.54;93388.22;4982583;28;7286;-59
2022/05/30 03:40:26;;;;;;;;;;;;;;;26.04;35.17;93391.53;4983936;28;9412;-59
2022/05/30 03:42:53;;;;;;;;;;;;;;;26.02;35.25;93396.81;4995292;28;7166;-59
2022/05/30 03:45:20;;;;;;;;;;;;;;;26.05;35.11;93393.00;4979153;28;9417;-59
2022/05/30 03:47:49;;;;;;;;;;;;;;;26.05;35.66;93398.53;4986100;28;7076;-59
2022/05/30 03:50:25;;;;;;;;;;;;;;;26.05;35.90;93392.25;4988959;28;7491;-59
2022/05/30 03:53:17;;;;;;;;;;;;;;;26.05;36.12;93400.53;4986872;28;7206;-59
2022/05/30 03:55:52;;;;;;;;;;;;;;;26.03;35.50;93406.56;4991074;28;6936;-59
2022/05/30 03:58:20;;;;;;;;;;;;;;;26.03;35.92;93406.56;4983739;28;7279;-59
2022/05/30 04:00:59;;;;;;;;;;;;;;;26.04;35.67;93402.53;4995051;28;7264;-59
2022/05/30 04:03:44;;;;;;;;;;;;;;;26.02;35.05;93410.59;4990204;28;8106;-59
2022/05/30 04:06:29;;;;;;;;;;;;;;;26.02;35.32;93407.84;5003883;28;7270;-59
2022/05/30 04:09:12;;;;;;;;;;;;;;;26.02;35.08;93409.84;4994358;28;7933;-59
2022/05/30 04:11:47;;;;;;;;;;;;;;;26.00;35.64;93407.66;4994782;28;9153;-59
2022/05/30 04:14:22;;;;;;;;;;;;;;;26.01;35.29;93414.63;5001556;28;7430;-59
2022/05/30 04:17:00;;;;;;;;;;;;;;;26.01;35.31;93413.91;5015064;28;8133;-59
2022/05/30 04:19:37;;;;;;;;;;;;;;;26.01;35.61;93408.41;4999037;28;7922;-60
2022/05/30 04:22:04;;;;;;;;;;;;;;;25.99;35.46;93410.94;4997869;28;6987;-59
2022/05/30 04:24:33;;;;;;;;;;;;;;;25.97;35.73;93419.00;4996025;28;9271;-59
2022/05/30 04:26:59;;;;;;;;;;;;;;;25.97;35.33;93422.50;4998813;28;7259;-59
2022/05/30 04:29:29;;;;;;;;;;;;;;;25.96;35.55;93421.03;4991050;28;7518;-59
2022/05/30 04:31:55;;;;;;;;;;;;;;;25.97;35.80;93419.72;4979779;28;9184;-59
2022/05/30 04:34:23;;;;;;;;;;;;;;;25.99;35.48;93416.47;4990571;28;7872;-59
2022/05/30 04:36:49;;;;;;;;;;;;;;;26.02;35.64;93426.41;5010712;28;8931;-59
2022/05/30 04:39:15;;;;;;;;;;;;;;;26.01;35.54;93419.41;4992425;28;9067;-60
2022/05/30 04:41:43;;;;;;;;;;;;;;;26.00;35.72;93417.94;5000111;28;7763;-59
2022/05/30 04:44:11;;;;;;;;;;;;;;;25.98;35.08;93418.47;5011501;28;7440;-60
2022/05/30 04:46:38;;;;;;;;;;;;;;;26.00;35.61;93417.94;4989991;28;7305;-59
2022/05/30 04:49:04;;;;;;;;;;;;;;;25.98;35.21;93421.22;4992636;28;9349;-59
2022/05/30 04:51:31;;;;;;;;;;;;;;;26.01;35.15;93422.16;5009204;28;7241;-59
2022/05/30 04:53:59;;;;;;;;;;;;;;;26.01;35.21;93428.41;5006041;28;9082;-59
2022/05/30 04:56:25;;;;;;;;;;;;;;;26.01;35.53;93427.69;4979121;28;9078;-59
2022/05/30 04:58:52;;;;;;;;;;;;;;;25.97;35.70;93428.00;5011494;28;7241;-59
2022/05/30 05:01:22;;;;;;;;;;;;;;;25.98;34.79;93421.22;4978910;28;7231;-59
2022/05/30 05:03:59;;;;;;;;;;;;;;;25.95;34.96;93427.78;4992620;28;6947;-59
2022/05/30 05:06:34;;;;;;;;;;;;;;;25.94;34.69;93431.09;4992102;28;7951;-59
2022/05/30 05:09:17;;;;;;;;;;;;;;;25.95;34.33;93436.06;4992681;28;7199;-59
2022/05/30 05:11:47;;;;;;;;;;;;;;;25.96;35.21;93428.53;5014614;28;7142;-59
2022/05/30 05:14:16;;;;;;;;;;;;;;;25.96;34.57;93434.81;5005145;28;9423;-59
2022/05/30 05:16:44;;;;;;;;;;;;;;;25.93;34.77;93433.09;4985578;28;8341;-60
2022/05/30 05:19:12;;;;;;;;;;;;;;;25.93;35.06;93438.63;4989829;28;7377;-60
2022/05/30 05:21:50;;;;;;;;;;;;;;;25.92;35.53;93441.91;4990539;28;6938;-60
2022/05/30 05:24:30;;;;;;;;;;;;;;;25.91;34.90;93437.66;5001033;28;9132;-59
2022/05/30 05:27:17;;;;;;;;;;;;;;;25.92;35.79;93448.16;4989024;28;9069;-59
2022/05/30 05:30:13;;;;;;;;;;;;;;;25.91;34.94;93448.69;4990781;28;9077;-60
2022/05/30 05:32:41;;;;;;;;;;;;;;;25.90;35.50;93453.44;4987309;28;7072;-59
2022/05/30 05:35:50;;;;;;;;;;;;;;;25.92;35.81;93461.94;4991119;28;7030;-59
2022/05/30 05:38:16;;;;;;;;;;;;;;;25.93;35.72;93452.38;5000942;28;7262;-60
2022/05/30 05:40:45;;;;;;;;;;;;;;;25.91;35.85;93462.47;4996351;28;8997;-60
2022/05/30 05:43:29;;;;;;;;;;;;;;;25.90;34.65;93464.47;4984539;28;9120;-60
2022/05/30 05:46:00;;;;;;;;;;;;;;;25.90;35.53;93464.47;4986018;28;9477;-60
2022/05/30 05:48:26;;;;;;;;;;;;;;;25.88;34.95;93466.31;5002635;28;7638;-60
2022/05/30 05:50:54;;;;;;;;;;;;;;;25.86;35.63;93475.09;4985628;28;7289;-60
2022/05/30 05:53:33;;;;;;;;;;;;;;;25.87;35.48;93470.31;4993255;28;8611;-59
2022/05/30 05:56:12;;;;;;;;;;;;;;;25.88;35.33;93472.53;4984058;28;9061;-60
2022/05/30 05:58:39;;;;;;;;;;;;;;;25.85;34.04;93478.38;5004695;28;9499;-59
2022/05/30 06:01:08;;;;;;;;;;;;;;;25.82;33.22;93482.94;4988661;28;9354;-59
2022/05/30 06:03:34;;;;;;;;;;;;;;;25.77;32.41;93478.31;4997150;28;7718;-59
2022/05/30 06:06:09;;;;;;;;;;;;;;;25.75;32.30;93478.06;4991315;28;7281;-59
2022/05/30 06:08:38;;;;;;;;;;;;;;;25.70;32.69;93470.69;4998789;28;7062;-59
2022/05/30 06:11:08;;;;;;;;;;;;;;;25.67;32.54;93480.00;4985874;28;7220;-59
2022/05/30 06:13:40;;;;;;;;;;;;;;;25.71;32.40;93485.94;4974320;28;9052;-59
2022/05/30 06:16:12;;;;;;;;;;;;;;;25.72;32.55;93487.41;5007863;28;7448;-59
2022/05/30 06:18:38;;;;;;;;;;;;;;;25.69;32.79;93482.97;4981493;28;7157;-59
2022/05/30 06:21:06;;;;;;;;;;;;;;;25.69;33.26;93484.97;4989501;28;7398;-60
2022/05/30 06:23:33;;;;;;;;;;;;;;;25.68;32.92;93481.50;4982609;28;8764;-59
2022/05/30 06:26:04;;;;;;;;;;;;;;;25.69;32.32;93484.97;4983963;28;9421;-59
2022/05/30 06:28:31;;;;;;;;;;;;;;;25.65;32.81;93485.31;4998874;28;9384;-59
2022/05/30 06:30:56;;;;;;;;;;;;;;;25.65;31.83;93490.81;5000770;28;8197;-59
2022/05/30 06:33:23;;;;;;;;;;;;;;;25.64;31.86;93499.63;4981869;28;8307;-60
2022/05/30 06:36:02;;;;;;;;;;;;;;;25.63;32.35;93496.13;5001362;28;8735;-59
2022/05/30 06:38:28;;;;;;;;;;;;;;;25.63;32.85;93490.63;4992772;28;7247;-59
2022/05/30 06:40:56;;;;;;;;;;;;;;;25.61;32.83;93501.44;4990407;28;7058;-59
2022/05/30 06:43:22;;;;;;;;;;;;;;;25.63;31.40;93500.88;4991186;28;7002;-59
2022/05/30 06:45:48;;;;;;;;;;;;;;;25.59;31.43;93495.72;4981245;28;8782;-59
2022/05/30 06:48:15;;;;;;;;;;;;;;;25.62;31.82;93499.41;5002446;28;7486;-59
2022/05/30 06:50:44;;;;;;;;;;;;;;;25.59;31.72;93503.97;4979526;28;7241;-59
2022/05/30 06:53:10;;;;;;;;;;;;;;;25.59;31.12;93508.72;4983629;28;7992;-59
2022/05/30 06:55:37;;;;;;;;;;;;;;;25.58;31.58;93510.75;4980800;28;8937;-59
2022/05/30 06:58:12;;;;;;;;;;;;;;;25.58;31.21;93507.97;4986491;28;9090;-59
2022/05/30 07:00:39;;;;;;;;;;;;;;;25.59;30.96;93514.97;4971230;28;7290;-59
2022/05/30 07:03:05;;;;;;;;;;;;;;;25.56;31.59;93510.53;4996273;28;7369;-59
2022/05/30 07:05:31;;;;;;;;;;;;;;;25.56;30.74;93513.28;4985170;28;9102;-60
2022/05/30 07:07:58;;;;;;;;;;;;;;;25.54;30.75;93515.81;4987775;28;7262;-60
2022/05/30 07:10:35;;;;;;;;;;;;;;;25.53;30.84;93519.88;4982388;28;7623;-59
2022/05/30 07:13:01;;;;;;;;;;;;;;;25.53;30.12;93511.59;4986358;28;7239;-60
2022/05/30 07:15:35;;;;;;;;;;;;;;;25.51;29.78;93510.66;4993604;28;7287;-60
2022/05/30 07:18:13;;;;;;;;;;;;;;;25.51;29.90;93510.66;4991119;28;7234;-60
2022/05/30 07:21:00;;;;;;;;;;;;;;;25.49;29.60;93516.66;4999436;28;7197;-60
2022/05/30 07:23:28;;;;;;;;;;;;;;;25.47;29.58;93513.72;4981189;28;7068;-59
2022/05/30 07:26:20;;;;;;;;;;;;;;;25.44;29.04;93523.03;4990113;28;7293;-60
2022/05/30 07:28:59;;;;;;;;;;;;;;;25.41;28.95;93519.31;5009653;28;8441;-60
2022/05/30 07:31:29;;;;;;;;;;;;;;;25.43;29.09;93527.06;5010468;28;7129;-60
2022/05/30 07:34:12;;;;;;;;;;;;;;;25.43;29.12;93527.06;4982722;28;7361;-60
2022/05/30 07:36:40;;;;;;;;;;;;;;;25.45;28.82;93529.31;4988499;28;7065;-60
2022/05/30 07:39:06;;;;;;;;;;;;;;;25.42;29.26;93531.09;4987010;28;9132;-60
2022/05/30 07:41:37;;;;;;;;;;;;;;;25.42;29.09;93533.84;4968034;28;9100;-60
2022/05/30 07:44:06;;;;;;;;;;;;;;;25.42;28.55;93536.59;4983147;28;9079;-60
2022/05/30 07:46:32;;;;;;;;;;;;;;;25.44;28.89;93534.06;5006545;28;9093;-60
2022/05/30 07:48:58;;;;;;;;;;;;;;;25.42;28.89;93542.84;4982332;28;7231;-60
2022/05/30 07:51:24;;;;;;;;;;;;;;;25.40;28.75;93542.59;4988206;28;9023;-60
2022/05/30 07:53:51;;;;;;;;;;;;;;;25.39;29.14;93546.63;4987324;28;7221;-60
2022/05/30 07:56:23;;;;;;;;;;;;;;;25.41;29.03;93543.34;4988445;28;9089;-60
2022/05/30 07:58:49;;;;;;;;;;;;;;;25.42;28.84;93544.88;5003689;28;7274;-60
2022/05/30 08:01:41;;;;;;;;;;;;;;;25.45;28.93;93552.03;4983114;28;9317;-60
2022/05/30 08:04:12;;;;;;;;;;;;;;;25.43;28.33;93549.09;4982775;28;7058;-60
2022/05/30 08:06:51;;;;;;;;;;;;;;;25.39;28.92;93537.63;4971589;28;7122;-59
2022/05/30 08:09:18;;;;;;;;;;;;;;;25.42;28.95;93547.63;4980655;28;7261;-60
2022/05/30 08:11:57;;;;;;;;;;;;;;;25.41;28.61;93548.84;4982266;28;9063;-61
2022/05/30 08:14:32;;;;;;;;;;;;;;;25.39;28.37;93543.88;4983182;28;8733;-60
2022/05/30 08:17:09;;;;;;;;;;;;;;;25.41;28.77;93541.34;4973452;28;7420;-60
2022/05/30 08:19:40;;;;;;;;;;;;;;;25.42;28.38;93542.09;4972414;28;8997;-60
2022/05/30 08:22:33;;;;;;;;;;;;;;;25.43;28.44;93543.56;4988300;28;9107;-60
2022/05/30 08:25:16;;;;;;;;;;;;;;;25.41;28.42;93541.34;4964292;28;7413;-60
2022/05/30 08:27:47;;;;;;;;;;;;;;;25.42;28.56;93536.59;4984078;28;8619;-60
2022/05/30 08:30:18;;;;;;;;;;;;;;;25.42;28.92;93542.84;4987824;28;7466;-60
2022/05/30 08:32:46;;;;;;;;;;;;;;;25.42;28.93;93550.38;4961080;28;7368;-60
2022/05/30 08:35:18;;;;;;;;;;;;;;;25.41;28.36;93557.09;4970473;28;7292;-60
2022/05/30 08:37:46;;;;;;;;;;;;;;;25.42;28.53;93558.63;4988529;28;8749;-60
2022/05/30 08:43:27;;;;;;;;;;;;;;;25.43;28.43;93554.59;4989628;28;9128;-60
2022/05/30 08:46:20;;;;;;;;;;;;;;;25.44;28.19;93556.09;4979014;28;7301;-60
2022/05/30 08:49:28;;;;;;;;;;;;;;;25.43;28.30;93563.59;4993114;28;7684;-60
2022/05/30 08:52:09;;;;;;;;;;;;;;;25.42;28.46;93559.34;4986814;28;7072;-60
2022/05/30 08:55:14;;;;;;;;;;;;;;;25.42;29.29;93561.38;5004970;28;7269;-60
2022/05/30 08:58:04;;;;;;;;;;;;;;;25.42;28.66;93561.38;4994750;28;7595;-60
2022/05/30 09:01:07;;;;;;;;;;;;;;;25.42;28.79;93564.13;4990780;28;9050;-60
2022/05/30 09:03:43;;;;;;;;;;;;;;;25.42;28.15;93564.13;4953511;28;7015;-60
2022/05/30 09:06:30;;;;;;;;;;;;;;;25.41;28.53;93560.59;4970023;28;8218;-61
2022/05/30 09:09:07;;;;;;;;;;;;;;;25.41;28.17;93568.13;4958729;28;7207;-60
2022/05/30 09:11:43;;;;;;;;;;;;;;;25.39;28.64;93562.41;4969953;28;9099;-60
2022/05/30 09:14:50;;;;;;;;;;;;;;;25.39;28.72;93560.41;4964586;28;7082;-60
2022/05/30 09:17:21;;;;;;;;;;;;;;;25.41;28.52;93568.13;4950842;28;9084;-60
2022/05/30 09:20:06;;;;;;;;;;;;;;;25.42;28.53;93566.88;4937352;28;8774;-60
2022/05/30 09:23:03;;;;;;;;;;;;;;;25.41;28.05;93562.59;4954997;28;7010;-60
2022/05/30 09:26:00;;;;;;;;;;;;;;;25.41;28.09;93568.13;4898839;29;7514;-60
2022/05/30 09:28:41;;;;;;;;;;;;;;;25.40;27.79;93563.91;4872505;29;7096;-60
2022/05/30 09:31:21;;;;;;;;;;;;;;;25.41;28.94;93573.63;4873075;29;9363;-60
2022/05/30 09:33:50;;;;;;;;;;;;;;;25.43;28.73;93577.38;4868039;29;8706;-60
2022/05/30 09:36:19;;;;;;;;;;;;;;;25.44;29.12;93569.84;4871560;29;8761;-60
2022/05/30 09:38:47;;;;;;;;;;;;;;;25.45;28.39;93573.34;4879460;29;7065;-60
2022/05/30 09:41:20;;;;;;;;;;;;;;;25.45;28.45;93568.56;4891197;29;7204;-60
2022/05/30 09:43:54;;;;;;;;;;;;;;;25.45;28.23;93571.31;4891069;29;8484;-61
2022/05/30 09:46:27;;;;;;;;;;;;;;;25.42;28.62;93569.63;4895351;29;9036;-60
2022/05/30 09:49:09;;;;;;;;;;;;;;;25.45;28.47;93571.31;4913703;29;8844;-60
2022/05/30 09:51:42;;;;;;;;;;;;;;;25.45;28.29;93571.31;4898777;29;7272;-60
2022/05/30 09:54:28;;;;;;;;;;;;;;;25.47;28.59;93574.28;4938812;28;7692;-60
2022/05/30 09:57:18;;;;;;;;;;;;;;;25.47;28.89;93571.53;4928775;28;7289;-60
2022/05/30 09:59:49;;;;;;;;;;;;;;;25.46;28.31;93567.31;4945273;28;7416;-60
2022/05/30 10:02:31;;;;;;;;;;;;;;;25.49;28.21;93574.50;4962305;28;8570;-60
2022/05/30 10:05:26;;;;;;;;;;;;;;;25.49;27.70;93573.78;5007613;28;7453;-60
2022/05/30 10:08:02;;;;;;;;;;;;;;;25.49;28.48;93582.75;4988132;28;9099;-60
2022/05/30 10:10:40;;;;;;;;;;;;;;;25.51;28.36;93582.25;4988821;28;7264;-60
2022/05/30 10:13:10;;;;;;;;;;;;;;;25.49;28.81;93579.28;4988222;28;7276;-60
2022/05/30 10:15:41;;;;;;;;;;;;;;;25.48;27.97;93577.78;4998611;28;7336;-60
2022/05/30 10:18:36;;;;;;;;;;;;;;;25.47;28.18;93577.03;5011025;28;7663;-60
2022/05/30 10:28:14;;;;;;;;;;;;;;;25.49;28.36;93590.28;5013428;28;7203;-61
2022/05/30 10:31:10;;;;;;;;;;;;;;;25.55;28.23;93599.19;4985831;28;9172;-60
2022/05/30 10:34:01;;;;;;;;;;;;;;;25.56;27.74;93595.88;4969497;28;7329;-60
2022/05/30 10:36:52;;;;;;;;;;;;;;;25.59;27.62;93600.34;4973319;28;9076;-60
2022/05/30 10:39:58;;;;;;;;;;;;;;;25.60;27.50;93596.31;4935982;28;9046;-60
2022/05/30 10:42:37;;;;;;;;;;;;;;;25.61;27.67;93592.28;4930671;28;6992;-60
2022/05/30 10:45:18;;;;;;;;;;;;;;;25.62;27.54;93599.28;4947120;28;9170;-61
2022/05/30 10:47:52;;;;;;;;;;;;;;;25.63;27.79;93611.03;4941680;28;7532;-60
2022/05/30 10:50:51;;;;;;;;;;;;;;;25.60;28.45;93612.84;4948313;28;9036;-60
2022/05/30 10:53:36;;;;;;;;;;;;;;;25.63;28.31;93609.03;4936694;28;7284;-60
2022/05/30 10:56:20;;;;;;;;;;;;;;;25.65;28.04;93611.25;4931545;28;6928;-60
2022/05/30 10:59:07;;;;;;;;;;;;;;;25.66;27.83;93610.75;4935637;28;9465;-60
2022/05/30 11:01:49;;;;;;;;;;;;;;;25.66;27.74;93616.25;4934956;28;9173;-60
2022/05/30 11:04:36;;;;;;;;;;;;;;;25.68;27.29;93612.94;4920796;28;7025;-60
2022/05/30 11:07:31;;;;;;;;;;;;;;;25.68;27.72;93613.69;4944546;28;8970;-60
2022/05/30 11:10:11;;;;;;;;;;;;;;;25.68;27.45;93613.69;4842424;29;7218;-60
2022/05/30 11:13:29;;;;;;;;;;;;;;;25.69;27.63;93615.16;4851089;29;9310;-60
2022/05/30 11:16:31;;;;;;;;;;;;;;;25.69;26.89;93628.19;4856156;29;9264;-60
2022/05/30 11:19:21;;;;;;;;;;;;;;;25.68;27.13;93621.22;4874068;29;9284;-60
2022/05/30 11:22:17;;;;;;;;;;;;;;;25.71;26.98;93622.91;4877389;29;8739;-60
2022/05/30 11:24:51;;;;;;;;;;;;;;;25.71;27.50;93623.63;4875717;29;8402;-60
2022/05/30 11:27:37;;;;;;;;;;;;;;;25.71;27.46;93615.38;4901851;29;7678;-60
2022/05/30 11:30:37;;;;;;;;;;;;;;;25.69;27.10;93620.69;4865425;29;8947;-60
2022/05/30 11:33:31;;;;;;;;;;;;;;;25.70;27.88;93616.66;4897980;29;8862;-60
2022/05/30 11:36:39;;;;;;;;;;;;;;;25.70;27.51;93615.91;4877305;29;7047;-60
2022/05/30 11:39:36;;;;;;;;;;;;;;;25.68;27.17;93613.69;4872763;29;9038;-60
2022/05/30 11:42:17;;;;;;;;;;;;;;;25.69;27.61;93626.19;4888638;29;7327;-62
2022/05/30 11:45:00;;;;;;;;;;;;;;;25.68;27.30;93624.72;4875275;29;7630;-60
2022/05/30 11:47:29;;;;;;;;;;;;;;;25.71;27.76;93622.91;4925610;29;8010;-60
2022/05/30 11:50:28;;;;;;;;;;;;;;;25.72;26.45;93624.38;4944140;29;7257;-61
2022/05/30 11:53:25;;;;;;;;;;;;;;;25.74;27.48;93622.59;4980695;28;7062;-60
2022/05/30 11:56:31;;;;;;;;;;;;;;;25.73;27.03;93623.13;4994017;28;7624;-60
2022/05/30 11:59:39;;;;;;;;;;;;;;;25.73;26.68;93623.84;5006863;28;7288;-60
2022/05/30 12:02:14;;;;;;;;;;;;;;;25.75;27.17;93632.31;4999365;28;7121;-60
2022/05/30 12:04:44;;;;;;;;;;;;;;;25.74;27.82;93627.34;4997902;28;6995;-60
2022/05/30 12:07:29;;;;;;;;;;;;;;;25.78;27.84;93633.28;4995247;28;7627;-60
2022/05/30 12:10:13;;;;;;;;;;;;;;;25.80;27.34;93630.72;4995436;28;7560;-60
2022/05/30 12:12:51;;;;;;;;;;;;;;;25.80;27.61;93631.47;4974808;28;9074;-60
2022/05/30 12:15:33;;;;;;;;;;;;;;;25.80;26.86;93625.97;4983318;28;7201;-60
2022/05/30 12:24:11;;;;;;;;;;;;;;;25.83;26.52;93635.94;4986902;28;7240;-60
2022/05/30 12:26:49;;;;;;;;;;;;;;;25.82;26.95;93637.19;5003212;28;7312;-60
2022/05/30 12:29:50;;;;;;;;;;;;;;;25.83;26.35;93630.44;4993767;28;7012;-60
2022/05/30 12:32:40;;;;;;;;;;;;;;;25.88;26.93;93632.31;4989591;28;9283;-60
2022/05/30 12:35:20;;;;;;;;;;;;;;;25.89;25.84;93625.56;5007048;28;7028;-60
2022/05/30 12:38:02;;;;;;;;;;;;;;;25.89;25.92;93631.06;4991570;28;7006;-61
2022/05/30 12:40:27;;;;;;;;;;;;;;;25.90;25.91;93632.53;5012249;28;7241;-60
2022/05/30 12:43:13;;;;;;;;;;;;;;;25.90;25.93;93634.56;5016326;28;7249;-60
2022/05/30 12:46:02;;;;;;;;;;;;;;;25.93;26.70;93641.75;5020513;28;9120;-60
2022/05/30 12:48:59;;;;;;;;;;;;;;;25.96;25.87;93633.19;5013229;28;9405;-60
2022/05/30 12:52:08;;;;;;;;;;;;;;;25.98;26.72;93633.38;4988312;28;9430;-60
2022/05/30 12:54:58;;;;;;;;;;;;;;;25.98;26.77;93640.91;4983510;28;7337;-61
2022/05/30 12:57:38;;;;;;;;;;;;;;;25.99;26.13;93632.09;4982558;28;8691;-60
2022/05/30 13:00:24;;;;;;;;;;;;;;;26.01;26.83;93629.56;4975401;28;9115;-60
2022/05/30 13:02:49;;;;;;;;;;;;;;;26.02;26.64;93631.06;4974658;28;8798;-60
2022/05/30 13:05:24;;;;;;;;;;;;;;;26.03;26.09;93632.50;4983598;28;7352;-60
2022/05/30 13:08:42;;;;;;;;;;;;;;;26.06;26.31;93625.94;4986234;28;7516;-60
2022/05/30 13:11:49;;;;;;;;;;;;;;;26.10;26.17;93633.91;4982987;28;8985;-61
2022/05/30 13:14:40;;;;;;;;;;;;;;;26.08;27.00;93628.16;4933152;29;9159;-60
2022/05/30 13:17:18;;;;;;;;;;;;;;;26.08;26.62;93620.69;4926648;29;9081;-60
2022/05/30 13:20:15;;;;;;;;;;;;;;;26.06;27.52;93636.22;4928345;29;8798;-60
2022/05/30 13:22:55;;;;;;;;;;;;;;;26.02;26.94;93635.81;4871908;29;7417;-60
2022/05/30 13:25:34;;;;;;;;;;;;;;;26.05;27.23;93638.25;4875677;29;9086;-60
2022/05/30 13:28:15;;;;;;;;;;;;;;;26.06;27.57;93641.75;4877082;29;7001;-60
2022/05/30 13:30:55;;;;;;;;;;;;;;;26.04;26.79;93639.53;4876983;29;7313;-60
2022/05/30 13:33:29;;;;;;;;;;;;;;;26.02;27.33;93642.06;4892989;29;7375;-60
2022/05/30 13:36:23;;;;;;;;;;;;;;;26.07;27.35;93646.75;4875611;29;9138;-60
2022/05/30 13:38:52;;;;;;;;;;;;;;;26.05;28.05;93643.78;4876174;29;7025;-60
2022/05/30 13:41:21;;;;;;;;;;;;;;;26.05;27.69;93649.28;4875148;29;7294;-60
2022/05/30 13:43:58;;;;;;;;;;;;;;;26.09;27.53;93646.97;4890666;29;7278;-60
2022/05/30 13:46:38;;;;;;;;;;;;;;;26.07;28.18;93641.22;4876813;29;7234;-60
2022/05/30 13:49:06;;;;;;;;;;;;;;;26.14;28.16;93637.84;4875335;29;8595;-60
2022/05/30 13:51:48;;;;;;;;;;;;;;;26.17;27.43;93636.78;4889024;29;8396;-60
2022/05/30 13:54:24;;;;;;;;;;;;;;;26.21;27.84;93641.25;4913920;29;7008;-60
2022/05/30 13:56:54;;;;;;;;;;;;;;;26.22;27.17;93648.22;4913616;29;7029;-60
2022/05/30 13:59:43;;;;;;;;;;;;;;;26.25;26.97;93638.91;4976367;28;7229;-60
2022/05/30 14:02:31;;;;;;;;;;;;;;;26.23;27.74;93649.72;4989329;28;7491;-60
2022/05/30 14:05:40;;;;;;;;;;;;;;;26.28;27.38;93646.09;5000970;28;7297;-60
2022/05/30 14:08:36;;;;;;;;;;;;;;;26.30;27.42;93632.50;4984722;28;7188;-60
2022/05/30 14:11:32;;;;;;;;;;;;;;;26.30;27.93;93638.03;4990212;28;9040;-60
2022/05/30 14:14:10;;;;;;;;;;;;;;;26.31;28.46;93626.47;4961612;28;9126;-60
2022/05/30 14:16:54;;;;;;;;;;;;;;;26.33;27.69;93626.69;4946367;28;7228;-60